sensor_id;sensor_type;location;lat;lon;timestamp;P1;durP1;ratioP1;P2;durP2;ratioP2
84161;SDS011;74285;52.372;12.924;2024-01-10T00:01:00;29.42;;;14.45;;
84161;SDS011;74285;52.372;12.924;2024-01-10T00:03:25;31.43;;;12.13;;
84161;SDS011;74285;52.372;12.924;2024-01-10T00:05:50;26.27;;;10.13;;
84161;SDS011;74285;52.372;12.924;2024-01-10T00:08:15;30.03;;;11.87;;
84161;SDS011;74285;52.372;12.924;2024-01-10T00:10:41;32.80;;;13.57;;
84161;SDS011;74285;52.372;12.924;2024-01-10T00:13:06;22.43;;;12.20;;
84161;SDS011;74285;52.372;12.924;2024-01-10T00:15:31;39.13;;;12.40;;
84161;SDS011;74285;52.372;12.924;2024-01-10T00:17:57;37.43;;;13.17;;
84161;SDS011;74285;52.372;12.924;2024-01-10T00:20:22;27.77;;;13.83;;
84161;SDS011;74285;52.372;12.924;2024-01-10T00:22:47;33.67;;;12.77;;
84161;SDS011;74285;52.372;12.924;2024-01-10T00:25:13;39.63;;;15.85;;
84161;SDS011;74285;52.372;12.924;2024-01-10T00:27:38;34.57;;;14.30;;
84161;SDS011;74285;52.372;12.924;2024-01-10T00:30:04;33.13;;;12.77;;
84161;SDS011;74285;52.372;12.924;2024-01-10T00:32:30;23.83;;;10.82;;
84161;SDS011;74285;52.372;12.924;2024-01-10T00:34:55;27.73;;;13.60;;
84161;SDS011;74285;52.372;12.924;2024-01-10T00:37:20;22.57;;;9.43;;
84161;SDS011;74285;52.372;12.924;2024-01-10T00:39:46;25.77;;;10.77;;
84161;SDS011;74285;52.372;12.924;2024-01-10T00:42:11;38.47;;;12.00;;
84161;SDS011;74285;52.372;12.924;2024-01-10T00:44:36;32.40;;;12.83;;
84161;SDS011;74285;52.372;12.924;2024-01-10T00:47:01;37.10;;;12.57;;
84161;SDS011;74285;52.372;12.924;2024-01-10T00:49:27;35.53;;;11.30;;
84161;SDS011;74285;52.372;12.924;2024-01-10T00:51:52;25.83;;;10.80;;
84161;SDS011;74285;52.372;12.924;2024-01-10T00:54:17;23.20;;;11.13;;
84161;SDS011;74285;52.372;12.924;2024-01-10T00:56:43;26.00;;;11.40;;
84161;SDS011;74285;52.372;12.924;2024-01-10T00:59:08;30.17;;;12.03;;
84161;SDS011;74285;52.372;12.924;2024-01-10T01:01:33;17.23;;;8.00;;
84161;SDS011;74285;52.372;12.924;2024-01-10T01:03:58;33.17;;;12.57;;
84161;SDS011;74285;52.372;12.924;2024-01-10T01:06:24;29.03;;;11.23;;
84161;SDS011;74285;52.372;12.924;2024-01-10T01:08:49;28.43;;;9.73;;
84161;SDS011;74285;52.372;12.924;2024-01-10T01:11:14;20.70;;;8.40;;
84161;SDS011;74285;52.372;12.924;2024-01-10T01:13:39;36.47;;;15.00;;
84161;SDS011;74285;52.372;12.924;2024-01-10T01:16:05;29.17;;;11.18;;
84161;SDS011;74285;52.372;12.924;2024-01-10T01:18:30;32.17;;;10.07;;
84161;SDS011;74285;52.372;12.924;2024-01-10T01:20:56;27.70;;;10.63;;
84161;SDS011;74285;52.372;12.924;2024-01-10T01:23:21;21.13;;;8.90;;
84161;SDS011;74285;52.372;12.924;2024-01-10T01:25:46;31.53;;;11.20;;
84161;SDS011;74285;52.372;12.924;2024-01-10T01:28:12;30.10;;;11.93;;
84161;SDS011;74285;52.372;12.924;2024-01-10T01:30:37;19.97;;;9.70;;
84161;SDS011;74285;52.372;12.924;2024-01-10T01:33:04;31.63;;;11.93;;
84161;SDS011;74285;52.372;12.924;2024-01-10T01:35:30;28.92;;;10.23;;
84161;SDS011;74285;52.372;12.924;2024-01-10T01:37:55;21.10;;;10.03;;
84161;SDS011;74285;52.372;12.924;2024-01-10T01:40:20;36.63;;;14.77;;
84161;SDS011;74285;52.372;12.924;2024-01-10T01:42:45;22.80;;;10.63;;
84161;SDS011;74285;52.372;12.924;2024-01-10T01:45:12;37.20;;;12.60;;
84161;SDS011;74285;52.372;12.924;2024-01-10T01:47:38;29.05;;;14.52;;
84161;SDS011;74285;52.372;12.924;2024-01-10T01:50:04;30.88;;;11.18;;
84161;SDS011;74285;52.372;12.924;2024-01-10T01:52:30;39.28;;;11.65;;
84161;SDS011;74285;52.372;12.924;2024-01-10T01:54:56;32.40;;;12.70;;
84161;SDS011;74285;52.372;12.924;2024-01-10T01:57:21;35.83;;;14.33;;
84161;SDS011;74285;52.372;12.924;2024-01-10T01:59:46;38.60;;;12.60;;
84161;SDS011;74285;52.372;12.924;2024-01-10T02:02:12;34.07;;;13.60;;
84161;SDS011;74285;52.372;12.924;2024-01-10T02:04:38;41.13;;;16.38;;
84161;SDS011;74285;52.372;12.924;2024-01-10T02:07:03;40.97;;;17.63;;
84161;SDS011;74285;52.372;12.924;2024-01-10T02:09:28;36.33;;;14.52;;
84161;SDS011;74285;52.372;12.924;2024-01-10T02:11:54;37.77;;;14.73;;
84161;SDS011;74285;52.372;12.924;2024-01-10T02:14:19;33.87;;;14.73;;
84161;SDS011;74285;52.372;12.924;2024-01-10T02:16:44;37.47;;;15.33;;
84161;SDS011;74285;52.372;12.924;2024-01-10T02:19:19;41.40;;;14.85;;
84161;SDS011;74285;52.372;12.924;2024-01-10T02:21:46;29.35;;;13.57;;
84161;SDS011;74285;52.372;12.924;2024-01-10T02:24:11;35.80;;;15.97;;
84161;SDS011;74285;52.372;12.924;2024-01-10T02:26:36;34.63;;;14.20;;
84161;SDS011;74285;52.372;12.924;2024-01-10T02:29:02;28.90;;;13.37;;
84161;SDS011;74285;52.372;12.924;2024-01-10T02:31:27;31.23;;;12.17;;
84161;SDS011;74285;52.372;12.924;2024-01-10T02:33:52;30.40;;;12.40;;
84161;SDS011;74285;52.372;12.924;2024-01-10T02:36:17;32.23;;;12.70;;
84161;SDS011;74285;52.372;12.924;2024-01-10T02:38:43;36.90;;;14.33;;
84161;SDS011;74285;52.372;12.924;2024-01-10T02:41:08;35.90;;;14.97;;
84161;SDS011;74285;52.372;12.924;2024-01-10T02:43:33;32.27;;;11.33;;
84161;SDS011;74285;52.372;12.924;2024-01-10T02:45:59;27.50;;;10.07;;
84161;SDS011;74285;52.372;12.924;2024-01-10T02:48:24;25.42;;;12.63;;
84161;SDS011;74285;52.372;12.924;2024-01-10T02:50:50;26.43;;;12.73;;
84161;SDS011;74285;52.372;12.924;2024-01-10T02:53:15;26.60;;;11.97;;
84161;SDS011;74285;52.372;12.924;2024-01-10T02:55:40;34.20;;;14.87;;
84161;SDS011;74285;52.372;12.924;2024-01-10T02:58:06;38.03;;;13.18;;
84161;SDS011;74285;52.372;12.924;2024-01-10T03:00:32;27.20;;;12.52;;
84161;SDS011;74285;52.372;12.924;2024-01-10T03:02:57;32.33;;;13.57;;
84161;SDS011;74285;52.372;12.924;2024-01-10T03:05:22;31.67;;;13.20;;
84161;SDS011;74285;52.372;12.924;2024-01-10T03:07:47;30.63;;;11.63;;
84161;SDS011;74285;52.372;12.924;2024-01-10T03:10:13;39.07;;;13.70;;
84161;SDS011;74285;52.372;12.924;2024-01-10T03:12:38;34.85;;;14.18;;
84161;SDS011;74285;52.372;12.924;2024-01-10T03:15:05;37.80;;;14.27;;
84161;SDS011;74285;52.372;12.924;2024-01-10T03:17:31;30.17;;;13.13;;
84161;SDS011;74285;52.372;12.924;2024-01-10T03:19:58;35.03;;;14.85;;
84161;SDS011;74285;52.372;12.924;2024-01-10T03:22:24;31.23;;;13.48;;
84161;SDS011;74285;52.372;12.924;2024-01-10T03:24:49;29.77;;;13.43;;
84161;SDS011;74285;52.372;12.924;2024-01-10T03:27:14;40.67;;;13.37;;
84161;SDS011;74285;52.372;12.924;2024-01-10T03:29:39;36.38;;;14.35;;
84161;SDS011;74285;52.372;12.924;2024-01-10T03:32:05;40.13;;;14.82;;
84161;SDS011;74285;52.372;12.924;2024-01-10T03:34:31;31.35;;;12.82;;
84161;SDS011;74285;52.372;12.924;2024-01-10T03:36:56;39.37;;;14.23;;
84161;SDS011;74285;52.372;12.924;2024-01-10T03:39:22;40.47;;;15.50;;
84161;SDS011;74285;52.372;12.924;2024-01-10T03:41:47;28.50;;;13.37;;
84161;SDS011;74285;52.372;12.924;2024-01-10T03:44:13;30.30;;;11.77;;
84161;SDS011;74285;52.372;12.924;2024-01-10T03:46:38;29.87;;;14.17;;
84161;SDS011;74285;52.372;12.924;2024-01-10T03:49:03;41.73;;;12.30;;
84161;SDS011;74285;52.372;12.924;2024-01-10T03:51:28;26.63;;;11.30;;
84161;SDS011;74285;52.372;12.924;2024-01-10T03:53:54;29.43;;;11.70;;
84161;SDS011;74285;52.372;12.924;2024-01-10T03:56:20;34.67;;;14.18;;
84161;SDS011;74285;52.372;12.924;2024-01-10T03:58:45;33.03;;;11.27;;
84161;SDS011;74285;52.372;12.924;2024-01-10T04:01:13;29.17;;;12.07;;
84161;SDS011;74285;52.372;12.924;2024-01-10T04:03:38;31.27;;;13.90;;
84161;SDS011;74285;52.372;12.924;2024-01-10T04:06:06;26.85;;;11.77;;
84161;SDS011;74285;52.372;12.924;2024-01-10T04:08:31;30.98;;;12.65;;
84161;SDS011;74285;52.372;12.924;2024-01-10T04:10:57;34.23;;;11.37;;
84161;SDS011;74285;52.372;12.924;2024-01-10T04:13:23;35.80;;;13.23;;
84161;SDS011;74285;52.372;12.924;2024-01-10T04:15:48;32.90;;;12.30;;
84161;SDS011;74285;52.372;12.924;2024-01-10T04:18:15;38.88;;;14.20;;
84161;SDS011;74285;52.372;12.924;2024-01-10T04:20:42;30.52;;;12.68;;
84161;SDS011;74285;52.372;12.924;2024-01-10T04:23:07;41.30;;;14.15;;
84161;SDS011;74285;52.372;12.924;2024-01-10T04:25:33;33.87;;;13.70;;
84161;SDS011;74285;52.372;12.924;2024-01-10T04:27:58;30.83;;;12.33;;
84161;SDS011;74285;52.372;12.924;2024-01-10T04:30:23;35.90;;;12.30;;
84161;SDS011;74285;52.372;12.924;2024-01-10T04:32:48;24.03;;;11.43;;
84161;SDS011;74285;52.372;12.924;2024-01-10T04:35:14;29.83;;;11.90;;
84161;SDS011;74285;52.372;12.924;2024-01-10T04:37:39;34.67;;;15.57;;
84161;SDS011;74285;52.372;12.924;2024-01-10T04:40:05;36.35;;;15.18;;
84161;SDS011;74285;52.372;12.924;2024-01-10T04:42:31;34.17;;;14.38;;
84161;SDS011;74285;52.372;12.924;2024-01-10T04:44:56;23.17;;;11.83;;
84161;SDS011;74285;52.372;12.924;2024-01-10T04:47:21;29.73;;;11.93;;
84161;SDS011;74285;52.372;12.924;2024-01-10T04:49:47;24.33;;;10.47;;
84161;SDS011;74285;52.372;12.924;2024-01-10T04:52:12;30.63;;;13.07;;
84161;SDS011;74285;52.372;12.924;2024-01-10T04:54:37;40.43;;;12.57;;
84161;SDS011;74285;52.372;12.924;2024-01-10T04:57:03;39.15;;;15.98;;
84161;SDS011;74285;52.372;12.924;2024-01-10T04:59:28;37.35;;;12.18;;
84161;SDS011;74285;52.372;12.924;2024-01-10T05:01:53;45.73;;;13.73;;
84161;SDS011;74285;52.372;12.924;2024-01-10T05:04:19;30.30;;;13.75;;
84161;SDS011;74285;52.372;12.924;2024-01-10T05:06:44;35.37;;;14.83;;
84161;SDS011;74285;52.372;12.924;2024-01-10T05:09:09;45.70;;;16.60;;
84161;SDS011;74285;52.372;12.924;2024-01-10T05:11:35;41.73;;;16.47;;
84161;SDS011;74285;52.372;12.924;2024-01-10T05:14:01;37.97;;;14.18;;
84161;SDS011;74285;52.372;12.924;2024-01-10T05:16:27;37.13;;;15.60;;
84161;SDS011;74285;52.372;12.924;2024-01-10T05:18:53;40.07;;;14.60;;
84161;SDS011;74285;52.372;12.924;2024-01-10T05:21:18;40.03;;;13.00;;
84161;SDS011;74285;52.372;12.924;2024-01-10T05:23:43;35.93;;;15.27;;
84161;SDS011;74285;52.372;12.924;2024-01-10T05:26:08;32.10;;;13.63;;
84161;SDS011;74285;52.372;12.924;2024-01-10T05:28:34;32.13;;;15.03;;
84161;SDS011;74285;52.372;12.924;2024-01-10T05:30:59;34.10;;;13.60;;
84161;SDS011;74285;52.372;12.924;2024-01-10T05:33:24;31.30;;;14.87;;
84161;SDS011;74285;52.372;12.924;2024-01-10T05:35:50;37.87;;;17.43;;
84161;SDS011;74285;52.372;12.924;2024-01-10T05:38:15;26.07;;;12.83;;
84161;SDS011;74285;52.372;12.924;2024-01-10T05:40:41;34.70;;;12.02;;
84161;SDS011;74285;52.372;12.924;2024-01-10T05:43:06;42.50;;;15.55;;
84161;SDS011;74285;52.372;12.924;2024-01-10T05:45:37;32.67;;;13.95;;
84161;SDS011;74285;52.372;12.924;2024-01-10T05:48:03;36.03;;;15.02;;
84161;SDS011;74285;52.372;12.924;2024-01-10T05:50:28;35.13;;;12.82;;
84161;SDS011;74285;52.372;12.924;2024-01-10T05:52:54;36.97;;;15.18;;
84161;SDS011;74285;52.372;12.924;2024-01-10T05:55:20;39.57;;;14.80;;
84161;SDS011;74285;52.372;12.924;2024-01-10T05:57:45;32.20;;;14.90;;
84161;SDS011;74285;52.372;12.924;2024-01-10T06:00:12;47.67;;;16.80;;
84161;SDS011;74285;52.372;12.924;2024-01-10T06:02:38;34.65;;;16.17;;
84161;SDS011;74285;52.372;12.924;2024-01-10T06:05:05;44.58;;;17.08;;
84161;SDS011;74285;52.372;12.924;2024-01-10T06:07:31;50.65;;;18.20;;
84161;SDS011;74285;52.372;12.924;2024-01-10T06:09:56;48.67;;;16.57;;
84161;SDS011;74285;52.372;12.924;2024-01-10T06:12:22;43.07;;;17.10;;
84161;SDS011;74285;52.372;12.924;2024-01-10T06:14:47;38.83;;;14.70;;
84161;SDS011;74285;52.372;12.924;2024-01-10T06:17:12;36.17;;;13.60;;
84161;SDS011;74285;52.372;12.924;2024-01-10T06:19:38;37.70;;;12.77;;
84161;SDS011;74285;52.372;12.924;2024-01-10T06:22:04;55.15;;;16.63;;
84161;SDS011;74285;52.372;12.924;2024-01-10T06:24:29;35.70;;;15.38;;
84161;SDS011;74285;52.372;12.924;2024-01-10T06:26:55;32.73;;;14.10;;
84161;SDS011;74285;52.372;12.924;2024-01-10T06:29:20;34.40;;;12.73;;
84161;SDS011;74285;52.372;12.924;2024-01-10T06:31:45;28.35;;;13.50;;
84161;SDS011;74285;52.372;12.924;2024-01-10T06:34:11;31.30;;;11.57;;
84161;SDS011;74285;52.372;12.924;2024-01-10T06:36:37;34.83;;;13.70;;
84161;SDS011;74285;52.372;12.924;2024-01-10T06:39:03;26.70;;;10.75;;
84161;SDS011;74285;52.372;12.924;2024-01-10T06:41:28;35.57;;;12.23;;
84161;SDS011;74285;52.372;12.924;2024-01-10T06:43:54;30.80;;;12.57;;
84161;SDS011;74285;52.372;12.924;2024-01-10T06:46:20;39.05;;;15.20;;
84161;SDS011;74285;52.372;12.924;2024-01-10T06:48:45;37.72;;;15.48;;
84161;SDS011;74285;52.372;12.924;2024-01-10T06:51:14;36.63;;;14.98;;
84161;SDS011;74285;52.372;12.924;2024-01-10T06:53:41;34.05;;;12.90;;
84161;SDS011;74285;52.372;12.924;2024-01-10T06:56:07;38.35;;;15.88;;
84161;SDS011;74285;52.372;12.924;2024-01-10T06:58:32;48.45;;;18.80;;
84161;SDS011;74285;52.372;12.924;2024-01-10T07:00:58;29.70;;;13.20;;
84161;SDS011;74285;52.372;12.924;2024-01-10T07:03:25;51.22;;;15.05;;
84161;SDS011;74285;52.372;12.924;2024-01-10T07:05:50;39.83;;;14.82;;
84161;SDS011;74285;52.372;12.924;2024-01-10T07:08:16;38.30;;;12.37;;
84161;SDS011;74285;52.372;12.924;2024-01-10T07:10:41;32.80;;;13.63;;
84161;SDS011;74285;52.372;12.924;2024-01-10T07:13:07;42.95;;;15.10;;
84161;SDS011;74285;52.372;12.924;2024-01-10T07:15:32;43.87;;;15.27;;
84161;SDS011;74285;52.372;12.924;2024-01-10T07:17:57;35.33;;;13.03;;
84161;SDS011;74285;52.372;12.924;2024-01-10T07:20:22;33.77;;;16.40;;
84161;SDS011;74285;52.372;12.924;2024-01-10T07:22:49;51.03;;;19.17;;
84161;SDS011;74285;52.372;12.924;2024-01-10T07:25:14;37.42;;;18.20;;
84161;SDS011;74285;52.372;12.924;2024-01-10T07:27:40;37.93;;;15.77;;
84161;SDS011;74285;52.372;12.924;2024-01-10T07:30:08;29.20;;;12.10;;
84161;SDS011;74285;52.372;12.924;2024-01-10T07:32:42;40.70;;;16.25;;
84161;SDS011;74285;52.372;12.924;2024-01-10T07:35:08;36.00;;;15.02;;
84161;SDS011;74285;52.372;12.924;2024-01-10T07:37:34;42.75;;;16.25;;
84161;SDS011;74285;52.372;12.924;2024-01-10T07:40:00;39.95;;;14.68;;
84161;SDS011;74285;52.372;12.924;2024-01-10T07:42:26;26.27;;;11.23;;
84161;SDS011;74285;52.372;12.924;2024-01-10T07:44:51;40.20;;;13.27;;
84161;SDS011;74285;52.372;12.924;2024-01-10T07:47:18;36.97;;;12.73;;
84161;SDS011;74285;52.372;12.924;2024-01-10T07:49:43;33.72;;;12.75;;
84161;SDS011;74285;52.372;12.924;2024-01-10T07:52:08;34.27;;;13.03;;
84161;SDS011;74285;52.372;12.924;2024-01-10T07:54:34;39.50;;;14.77;;
84161;SDS011;74285;52.372;12.924;2024-01-10T07:56:59;33.50;;;14.17;;
84161;SDS011;74285;52.372;12.924;2024-01-10T07:59:24;39.03;;;13.80;;
84161;SDS011;74285;52.372;12.924;2024-01-10T08:01:56;33.63;;;11.18;;
84161;SDS011;74285;52.372;12.924;2024-01-10T08:04:25;34.55;;;14.00;;
84161;SDS011;74285;52.372;12.924;2024-01-10T08:06:51;35.17;;;15.80;;
84161;SDS011;74285;52.372;12.924;2024-01-10T08:09:17;35.30;;;14.65;;
84161;SDS011;74285;52.372;12.924;2024-01-10T08:11:44;34.65;;;14.25;;
84161;SDS011;74285;52.372;12.924;2024-01-10T08:14:10;42.63;;;13.98;;
84161;SDS011;74285;52.372;12.924;2024-01-10T08:16:35;35.40;;;14.13;;
84161;SDS011;74285;52.372;12.924;2024-01-10T08:19:00;37.23;;;14.93;;
84161;SDS011;74285;52.372;12.924;2024-01-10T08:21:25;34.57;;;16.07;;
84161;SDS011;74285;52.372;12.924;2024-01-10T08:23:51;39.23;;;16.20;;
84161;SDS011;74285;52.372;12.924;2024-01-10T08:26:16;39.60;;;11.97;;
84161;SDS011;74285;52.372;12.924;2024-01-10T08:28:41;41.87;;;16.97;;
84161;SDS011;74285;52.372;12.924;2024-01-10T08:31:07;22.23;;;11.23;;
84161;SDS011;74285;52.372;12.924;2024-01-10T08:33:33;38.25;;;14.63;;
84161;SDS011;74285;52.372;12.924;2024-01-10T08:35:58;29.63;;;12.60;;
84161;SDS011;74285;52.372;12.924;2024-01-10T08:38:24;40.08;;;15.82;;
84161;SDS011;74285;52.372;12.924;2024-01-10T08:40:49;35.05;;;15.20;;
84161;SDS011;74285;52.372;12.924;2024-01-10T08:43:14;31.07;;;14.03;;
84161;SDS011;74285;52.372;12.924;2024-01-10T08:45:40;53.60;;;17.93;;
84161;SDS011;74285;52.372;12.924;2024-01-10T08:48:05;33.90;;;13.20;;
84161;SDS011;74285;52.372;12.924;2024-01-10T08:50:32;34.97;;;14.38;;
84161;SDS011;74285;52.372;12.924;2024-01-10T08:52:58;44.85;;;16.77;;
84161;SDS011;74285;52.372;12.924;2024-01-10T08:55:24;47.40;;;18.63;;
84161;SDS011;74285;52.372;12.924;2024-01-10T08:57:49;37.67;;;16.23;;
84161;SDS011;74285;52.372;12.924;2024-01-10T09:00:15;42.13;;;15.93;;
84161;SDS011;74285;52.372;12.924;2024-01-10T09:02:40;65.10;;;25.15;;
84161;SDS011;74285;52.372;12.924;2024-01-10T09:05:06;56.00;;;22.40;;
84161;SDS011;74285;52.372;12.924;2024-01-10T09:07:34;52.78;;;19.98;;
84161;SDS011;74285;52.372;12.924;2024-01-10T09:10:00;37.80;;;16.63;;
84161;SDS011;74285;52.372;12.924;2024-01-10T09:12:25;42.17;;;16.63;;
84161;SDS011;74285;52.372;12.924;2024-01-10T09:14:51;48.33;;;16.53;;
84161;SDS011;74285;52.372;12.924;2024-01-10T09:17:16;48.17;;;18.05;;
84161;SDS011;74285;52.372;12.924;2024-01-10T09:19:41;42.83;;;16.77;;
84161;SDS011;74285;52.372;12.924;2024-01-10T09:22:07;48.23;;;15.37;;
84161;SDS011;74285;52.372;12.924;2024-01-10T09:24:32;37.53;;;14.57;;
84161;SDS011;74285;52.372;12.924;2024-01-10T09:26:57;29.03;;;12.47;;
84161;SDS011;74285;52.372;12.924;2024-01-10T09:29:23;35.23;;;13.30;;
84161;SDS011;74285;52.372;12.924;2024-01-10T09:31:50;41.78;;;14.48;;
84161;SDS011;74285;52.372;12.924;2024-01-10T09:34:15;45.17;;;16.77;;
84161;SDS011;74285;52.372;12.924;2024-01-10T09:36:41;28.77;;;12.32;;
84161;SDS011;74285;52.372;12.924;2024-01-10T09:39:07;35.45;;;15.10;;
84161;SDS011;74285;52.372;12.924;2024-01-10T09:41:38;34.28;;;13.60;;
84161;SDS011;74285;52.372;12.924;2024-01-10T09:44:07;37.38;;;13.85;;
84161;SDS011;74285;52.372;12.924;2024-01-10T09:46:32;37.57;;;14.97;;
84161;SDS011;74285;52.372;12.924;2024-01-10T09:48:58;42.85;;;14.30;;
84161;SDS011;74285;52.372;12.924;2024-01-10T09:51:23;46.03;;;14.82;;
84161;SDS011;74285;52.372;12.924;2024-01-10T09:53:49;28.45;;;12.88;;
84161;SDS011;74285;52.372;12.924;2024-01-10T09:56:16;31.42;;;11.45;;
84161;SDS011;74285;52.372;12.924;2024-01-10T09:58:43;23.27;;;9.55;;
84161;SDS011;74285;52.372;12.924;2024-01-10T10:01:10;31.77;;;11.88;;
84161;SDS011;74285;52.372;12.924;2024-01-10T10:03:36;23.90;;;10.32;;
84161;SDS011;74285;52.372;12.924;2024-01-10T10:06:03;35.22;;;11.77;;
84161;SDS011;74285;52.372;12.924;2024-01-10T10:08:29;36.28;;;13.38;;
84161;SDS011;74285;52.372;12.924;2024-01-10T10:10:54;37.20;;;13.80;;
84161;SDS011;74285;52.372;12.924;2024-01-10T10:13:26;39.93;;;12.90;;
84161;SDS011;74285;52.372;12.924;2024-01-10T10:18:27;33.33;;;11.38;;
84161;SDS011;74285;52.372;12.924;2024-01-10T10:21:11;29.15;;;11.23;;
84161;SDS011;74285;52.372;12.924;2024-01-10T10:23:39;32.15;;;11.38;;
84161;SDS011;74285;52.372;12.924;2024-01-10T10:28:46;23.05;;;10.48;;
84161;SDS011;74285;52.372;12.924;2024-01-10T10:31:12;26.25;;;11.32;;
84161;SDS011;74285;52.372;12.924;2024-01-10T10:33:37;31.83;;;10.80;;
84161;SDS011;74285;52.372;12.924;2024-01-10T10:36:04;26.90;;;11.43;;
84161;SDS011;74285;52.372;12.924;2024-01-10T10:38:29;35.45;;;13.15;;
84161;SDS011;74285;52.372;12.924;2024-01-10T10:40:55;22.47;;;11.23;;
84161;SDS011;74285;52.372;12.924;2024-01-10T10:43:20;33.60;;;11.98;;
84161;SDS011;74285;52.372;12.924;2024-01-10T10:45:47;26.92;;;11.32;;
84161;SDS011;74285;52.372;12.924;2024-01-10T10:48:14;30.77;;;11.77;;
84161;SDS011;74285;52.372;12.924;2024-01-10T10:50:41;30.80;;;10.23;;
84161;SDS011;74285;52.372;12.924;2024-01-10T10:53:15;33.72;;;11.93;;
84161;SDS011;74285;52.372;12.924;2024-01-10T10:55:40;30.25;;;13.23;;
84161;SDS011;74285;52.372;12.924;2024-01-10T10:58:07;34.10;;;12.23;;
84161;SDS011;74285;52.372;12.924;2024-01-10T11:00:33;33.40;;;12.10;;
84161;SDS011;74285;52.372;12.924;2024-01-10T11:02:59;34.65;;;13.98;;
84161;SDS011;74285;52.372;12.924;2024-01-10T11:05:25;37.65;;;13.20;;
84161;SDS011;74285;52.372;12.924;2024-01-10T11:07:51;36.83;;;14.03;;
84161;SDS011;74285;52.372;12.924;2024-01-10T11:10:27;34.95;;;13.93;;
84161;SDS011;74285;52.372;12.924;2024-01-10T11:13:03;37.22;;;12.57;;
84161;SDS011;74285;52.372;12.924;2024-01-10T11:21:06;22.75;;;9.25;;
84161;SDS011;74285;52.372;12.924;2024-01-10T11:23:47;29.17;;;10.50;;
84161;SDS011;74285;52.372;12.924;2024-01-10T11:26:14;31.70;;;11.88;;
84161;SDS011;74285;52.372;12.924;2024-01-10T11:28:41;23.77;;;10.25;;
84161;SDS011;74285;52.372;12.924;2024-01-10T11:31:06;29.63;;;11.47;;
84161;SDS011;74285;52.372;12.924;2024-01-10T11:33:34;30.17;;;11.48;;
84161;SDS011;74285;52.372;12.924;2024-01-10T11:38:42;25.88;;;9.68;;
84161;SDS011;74285;52.372;12.924;2024-01-10T11:41:12;31.30;;;11.02;;
84161;SDS011;74285;52.372;12.924;2024-01-10T11:43:40;27.75;;;10.73;;
84161;SDS011;74285;52.372;12.924;2024-01-10T11:46:05;24.30;;;9.87;;
84161;SDS011;74285;52.372;12.924;2024-01-10T11:48:31;30.45;;;11.15;;
84161;SDS011;74285;52.372;12.924;2024-01-10T11:50:57;26.20;;;9.48;;
84161;SDS011;74285;52.372;12.924;2024-01-10T11:53:42;26.38;;;10.55;;
84161;SDS011;74285;52.372;12.924;2024-01-10T11:56:14;29.42;;;10.75;;
84161;SDS011;74285;52.372;12.924;2024-01-10T12:01:30;17.63;;;8.63;;
84161;SDS011;74285;52.372;12.924;2024-01-10T12:03:56;31.00;;;11.70;;
84161;SDS011;74285;52.372;12.924;2024-01-10T12:06:22;22.80;;;8.70;;
84161;SDS011;74285;52.372;12.924;2024-01-10T12:08:50;28.80;;;10.93;;
84161;SDS011;74285;52.372;12.924;2024-01-10T12:11:15;31.92;;;11.27;;
84161;SDS011;74285;52.372;12.924;2024-01-10T12:13:41;33.33;;;10.68;;
84161;SDS011;74285;52.372;12.924;2024-01-10T12:16:06;28.63;;;10.30;;
84161;SDS011;74285;52.372;12.924;2024-01-10T12:18:32;29.37;;;11.13;;
84161;SDS011;74285;52.372;12.924;2024-01-10T12:20:57;32.33;;;13.37;;
84161;SDS011;74285;52.372;12.924;2024-01-10T12:23:22;26.43;;;10.73;;
84161;SDS011;74285;52.372;12.924;2024-01-10T12:25:49;24.55;;;9.80;;
84161;SDS011;74285;52.372;12.924;2024-01-10T12:28:18;23.63;;;8.87;;
84161;SDS011;74285;52.372;12.924;2024-01-10T12:30:43;29.30;;;8.55;;
84161;SDS011;74285;52.372;12.924;2024-01-10T12:33:09;28.25;;;9.77;;
84161;SDS011;74285;52.372;12.924;2024-01-10T12:35:34;26.03;;;10.83;;
84161;SDS011;74285;52.372;12.924;2024-01-10T12:38:00;29.20;;;11.30;;
84161;SDS011;74285;52.372;12.924;2024-01-10T12:40:25;21.95;;;9.10;;
84161;SDS011;74285;52.372;12.924;2024-01-10T12:43:03;24.55;;;10.38;;
84161;SDS011;74285;52.372;12.924;2024-01-10T12:45:29;25.42;;;8.82;;
84161;SDS011;74285;52.372;12.924;2024-01-10T12:47:55;18.43;;;7.87;;
84161;SDS011;74285;52.372;12.924;2024-01-10T12:50:20;24.30;;;8.30;;
84161;SDS011;74285;52.372;12.924;2024-01-10T12:52:45;20.35;;;7.97;;
84161;SDS011;74285;52.372;12.924;2024-01-10T12:55:11;23.17;;;9.13;;
84161;SDS011;74285;52.372;12.924;2024-01-10T12:57:37;28.30;;;9.70;;
84161;SDS011;74285;52.372;12.924;2024-01-10T13:00:03;24.02;;;9.13;;
84161;SDS011;74285;52.372;12.924;2024-01-10T13:02:31;24.92;;;8.90;;
84161;SDS011;74285;52.372;12.924;2024-01-10T13:05:00;26.13;;;9.25;;
84161;SDS011;74285;52.372;12.924;2024-01-10T13:07:25;27.25;;;8.50;;
84161;SDS011;74285;52.372;12.924;2024-01-10T13:09:52;28.17;;;10.45;;
84161;SDS011;74285;52.372;12.924;2024-01-10T13:17:09;26.80;;;9.00;;
84161;SDS011;74285;52.372;12.924;2024-01-10T13:19:34;21.83;;;9.37;;
84161;SDS011;74285;52.372;12.924;2024-01-10T13:21:59;32.00;;;11.27;;
84161;SDS011;74285;52.372;12.924;2024-01-10T13:24:25;28.43;;;10.53;;
84161;SDS011;74285;52.372;12.924;2024-01-10T13:26:50;22.50;;;9.67;;
84161;SDS011;74285;52.372;12.924;2024-01-10T13:29:15;30.93;;;10.77;;
84161;SDS011;74285;52.372;12.924;2024-01-10T13:31:41;22.40;;;8.80;;
84161;SDS011;74285;52.372;12.924;2024-01-10T13:34:06;28.08;;;10.60;;
84161;SDS011;74285;52.372;12.924;2024-01-10T13:36:32;27.70;;;10.90;;
84161;SDS011;74285;52.372;12.924;2024-01-10T13:38:57;33.87;;;11.50;;
84161;SDS011;74285;52.372;12.924;2024-01-10T13:41:22;37.10;;;13.48;;
84161;SDS011;74285;52.372;12.924;2024-01-10T13:43:48;30.30;;;10.53;;
84161;SDS011;74285;52.372;12.924;2024-01-10T13:46:13;29.43;;;10.93;;
84161;SDS011;74285;52.372;12.924;2024-01-10T13:48:38;29.97;;;11.00;;
84161;SDS011;74285;52.372;12.924;2024-01-10T13:51:04;27.67;;;9.53;;
84161;SDS011;74285;52.372;12.924;2024-01-10T13:53:29;27.30;;;10.25;;
84161;SDS011;74285;52.372;12.924;2024-01-10T13:55:54;34.13;;;13.40;;
84161;SDS011;74285;52.372;12.924;2024-01-10T13:58:20;27.15;;;10.80;;
84161;SDS011;74285;52.372;12.924;2024-01-10T14:00:48;26.90;;;9.90;;
84161;SDS011;74285;52.372;12.924;2024-01-10T14:03:13;28.13;;;10.90;;
84161;SDS011;74285;52.372;12.924;2024-01-10T14:05:39;36.05;;;12.88;;
84161;SDS011;74285;52.372;12.924;2024-01-10T14:08:04;27.35;;;10.68;;
84161;SDS011;74285;52.372;12.924;2024-01-10T14:10:30;23.58;;;9.30;;
84161;SDS011;74285;52.372;12.924;2024-01-10T14:12:55;30.23;;;12.30;;
84161;SDS011;74285;52.372;12.924;2024-01-10T14:15:20;31.73;;;10.70;;
84161;SDS011;74285;52.372;12.924;2024-01-10T14:17:45;33.33;;;12.50;;
84161;SDS011;74285;52.372;12.924;2024-01-10T14:20:11;30.48;;;11.02;;
84161;SDS011;74285;52.372;12.924;2024-01-10T14:22:37;27.63;;;10.65;;
84161;SDS011;74285;52.372;12.924;2024-01-10T14:25:03;27.83;;;10.83;;